Latest Weather Observations for Maningrida Airport

IDD60801

Issued at 11:35 pm CST Thursday 24 April 2014 (issued every 30 minutes, with the page automatically refreshed every 10 minutes)

About weather observations | Map of weather stations | Latest weather observations for NT | Other Formats
Station Details ID: 014405 Name: MANINGRIDA AIRPORT Lat: -12.06 Lon: 134.23 Height: 28.1 m
Data from the previous 72 hours. | See also: Recent months at Maningrida Airport
Date/Time
CST
Temp
°C
App
Temp
°C
Dew
Point
Rel
Hum
%
Delta-T
°C
Wind Press
QNH
hPa
Press
MSL
hPa
Rain
since 9 am
mm
Dir
 
Spd
km/h
Gust
km/h
Spd
kts
Gust
kts
24/11:30pm 25.2 31.8 25.2 100 0.0 SSE 0 0 0 0 1007.1 - 2.4
24/11:00pm 25.5 32.3 25.5 100 0.0 SSE 0 0 0 0 1007.4 - 2.4
24/10:30pm 25.6 32.4 25.6 100 0.0 CALM 0 11 0 6 1007.7 - 2.4
24/10:00pm 25.7 32.6 25.7 100 0.0 CALM 0 13 0 7 1008.0 - 2.4
24/09:30pm 25.8 31.6 25.8 100 0.0 SE 6 15 3 8 1008.0 - 2.4
24/09:00pm 25.9 32.2 25.9 100 0.0 ESE 4 13 2 7 1007.9 1007.8 2.4
24/08:30pm 26.3 33.6 26.3 100 0.0 CALM 0 0 0 0 1007.7 - 2.4
24/08:00pm 26.6 33.7 26.6 100 0.0 SE 2 13 1 7 1007.3 - 2.4
24/07:30pm 26.7 32.7 26.4 98 0.2 SE 7 13 4 7 1006.8 - 2.4
24/07:00pm 26.8 33.3 25.6 93 0.8 S 2 13 1 7 1006.0 - 2.4
24/06:30pm 27.1 34.1 25.9 93 0.8 CALM 0 0 0 0 1005.6 - 2.4
24/06:00pm 27.7 34.6 25.7 89 1.4 CALM 0 0 0 0 1005.0 1005.0 2.4
24/05:30pm 28.0 34.7 25.4 86 1.8 CALM 0 0 0 0 1004.7 - 2.4
24/05:00pm 28.2 35.0 25.6 86 1.8 CALM 0 0 0 0 1004.3 - 2.4
24/04:30pm 28.4 35.1 25.4 84 2.1 CALM 0 11 0 6 1004.5 - 2.4
24/04:00pm 28.7 35.2 25.1 81 2.5 CALM 0 0 0 0 1004.6 - 2.4
24/03:30pm 29.7 36.7 25.9 80 2.7 CALM 0 11 0 6 1004.5 - 2.4
24/03:00pm 29.2 36.3 26.0 83 2.3 CALM 0 13 0 7 1004.9 1004.9 2.4
24/02:30pm 28.5 35.3 25.5 84 2.1 CALM 0 0 0 0 1005.2 - 2.4
24/02:00pm 28.1 35.1 25.9 88 1.6 CALM 0 0 0 0 1005.7 - 2.4
24/01:30pm 26.9 34.4 26.6 98 0.2 CALM 0 11 0 6 1006.2 - 2.2
24/01:07pm 26.2 32.7 26.2 100 0.0 NNW 4 17 2 9 1006.5 - 2.2
24/01:00pm 25.9 31.6 25.9 100 0.0 N 7 17 4 9 1006.6 - 2.2
24/12:57pm 25.9 31.6 25.9 100 0.0 N 7 17 4 9 1006.6 - 2.2
24/12:34pm 25.6 32.1 25.6 100 0.0 NNE 2 19 1 10 1007.0 - 1.4
24/12:33pm 25.8 32.4 25.8 100 0.0 NNE 2 24 1 13 1007.0 - 1.4
24/12:30pm 26.0 32.7 26.0 100 0.0 NE 2 28 1 15 1007.0 - 0.8
24/12:00pm 26.8 34.4 26.8 100 0.0 CALM 0 7 0 4 1007.0 1006.9 0.4
24/11:46am 26.9 32.3 26.6 98 0.2 SE 11 20 6 11 1007.2 - 0.2
24/11:30am 27.7 31.8 26.3 92 1.0 SE 17 26 9 14 1007.4 - 0.2
24/11:28am 27.8 31.9 26.4 92 1.0 SE 17 26 9 14 1007.5 - 0.2
24/11:24am 27.8 31.4 26.2 91 1.1 SE 19 24 10 13 1007.5 - 0.2
24/11:00am 27.7 32.2 27.0 96 0.5 SE 17 22 9 12 1008.0 - 0.2
24/10:57am 27.4 32.3 26.9 97 0.4 SE 15 20 8 11 1008.1 - 0.2
24/10:33am 26.6 31.2 26.6 100 0.0 SSE 15 22 8 12 1007.9 - 0.2
24/10:30am 26.5 31.1 26.5 100 0.0 SSE 15 22 8 12 1007.9 - 0.2
24/10:00am 25.6 30.3 25.6 100 0.0 SSE 11 20 6 11 1008.2 - 0.2
24/09:58am 25.9 31.2 25.9 100 0.0 SSE 9 20 5 11 1008.2 - 0.2
24/09:56am 25.5 29.8 25.5 100 0.0 SSE 13 20 7 11 1008.2 - 0.2
24/09:32am 25.3 29.5 25.3 100 0.0 SSE 13 20 7 11 1008.1 - 0.2
24/09:30am 25.3 29.9 25.3 100 0.0 SSE 11 19 6 10 1008.2 - 0.2
24/09:00am 25.0 29.0 25.0 100 0.0 SSE 13 19 7 10 1008.3 1008.2 1.0
24/08:30am 24.8 28.7 24.8 100 0.0 SSE 13 19 7 10 1008.2 - 0.6
24/08:27am 24.8 28.3 24.8 100 0.0 SSE 15 19 8 10 1008.1 - 0.6
24/08:16am 24.9 28.8 24.9 100 0.0 SSE 13 20 7 11 1007.9 - 0.6
24/08:00am 24.7 28.5 24.7 100 0.0 SSE 13 19 7 10 1007.5 - 0.6
24/07:43am 24.6 28.7 24.6 100 0.0 SSE 11 20 6 11 1007.0 - 0.6
24/07:32am 24.6 28.7 24.6 100 0.0 SSE 11 17 6 9 1006.9 - 0.6
24/07:31am 24.6 29.1 24.6 100 0.0 SSE 9 17 5 9 1006.9 - 0.6
24/07:30am 24.6 29.1 24.6 100 0.0 SSE 9 17 5 9 1006.9 - 0.6
24/07:26am 24.5 29.3 24.5 100 0.0 SSE 7 19 4 10 1006.8 - 0.6
24/07:00am 24.6 29.1 24.6 100 0.0 SE 9 19 5 10 1006.6 - 0.6
24/06:56am 24.6 29.1 24.6 100 0.0 SE 9 17 5 9 1006.6 - 0.4
24/06:55am 24.6 29.1 24.6 100 0.0 SE 9 19 5 10 1006.6 - 0.4
24/06:39am 24.7 28.9 24.7 100 0.0 SE 11 20 6 11 1006.5 - 0.4
24/06:30am 24.8 29.8 24.8 100 0.0 SE 7 15 4 8 1006.4 - 0.4
24/06:00am 24.7 30.6 24.7 100 0.0 SSE 2 13 1 7 1005.8 1005.7 0.4
24/05:30am 24.7 28.5 24.7 100 0.0 SE 13 19 7 10 1005.1 - 0.4
24/05:00am 24.6 28.7 24.6 100 0.0 SSE 11 20 6 11 1005.2 - 0.4
24/04:32am 24.7 28.9 24.7 100 0.0 SE 11 19 6 10 1005.8 - 0.4
24/04:30am 24.7 28.9 24.7 100 0.0 SE 11 19 6 10 1005.9 - 0.4
24/04:00am 24.9 28.4 24.9 100 0.0 SE 15 24 8 13 1005.3 - 0.4
24/03:30am 25.0 28.4 24.7 98 0.2 ESE 15 20 8 11 1005.3 - 0.4
24/03:00am 24.9 27.7 24.9 100 0.0 SE 19 24 10 13 1004.7 1004.7 0.4
24/02:30am 24.8 30.0 24.8 100 0.0 SSE 6 17 3 9 1005.3 - 0.4
24/02:00am 24.4 27.6 24.4 100 0.0 SE 15 20 8 11 1005.9 - 0.4
24/01:30am 24.3 27.5 24.3 100 0.0 SSE 15 24 8 13 1006.2 - 0.4
24/01:00am 24.6 27.0 24.6 100 0.0 SSE 20 26 11 14 1007.2 - 0.4
24/12:30am 24.9 28.4 24.9 100 0.0 SE 15 24 8 13 1007.7 - 0.4
24/12:00am 25.4 28.5 25.4 100 0.0 SSE 19 26 10 14 1007.7 1007.6 0.4
 
Date/Time
CST
Temp
°C
App
Temp
°C
Dew
Point
Rel
Hum
%
Delta-T
°C
Wind Press
QNH
hPa
Press
MSL
hPa
Rain
since 9 am
mm
Dir
 
Spd
km/h
Gust
km/h
Spd
kts
Gust
kts
23/11:30pm 25.5 28.7 25.5 100 0.0 SSE 19 24 10 13 1007.8 - 0.4
23/11:00pm 25.6 29.2 25.6 100 0.0 SE 17 22 9 12 1008.1 - 0.4
23/10:30pm 25.7 31.8 25.7 100 0.0 SSE 4 15 2 8 1008.8 - 0.4
23/10:00pm 25.8 32.4 25.8 100 0.0 S 2 15 1 8 1009.1 - 0.4
23/09:30pm 25.9 32.6 25.9 100 0.0 SSE 2 13 1 7 1009.0 - 0.4
23/09:00pm 25.8 32.8 25.8 100 0.0 CALM 0 0 0 0 1008.6 1008.5 0.4
23/08:30pm 26.0 31.4 26.0 100 0.0 SE 9 13 5 7 1008.3 - 0.4
23/08:00pm 25.9 32.9 25.9 100 0.0 CALM 0 0 0 0 1007.6 - 0.4
23/07:30pm 26.3 33.3 25.8 97 0.4 CALM 0 0 0 0 1007.2 - 0.4
23/07:00pm 26.4 32.0 25.4 94 0.7 N 6 17 3 9 1006.7 - 0.4
23/06:30pm 26.5 32.3 26.0 97 0.4 NNE 7 19 4 10 1006.6 - 0.4
23/06:26pm 26.5 32.5 26.0 97 0.4 N 6 17 3 9 1006.7 - 0.4
23/06:08pm 26.4 31.6 25.7 96 0.5 NNW 9 19 5 10 1006.6 - 0.4
23/06:07pm 26.3 31.4 25.6 96 0.5 NNW 9 19 5 10 1006.6 - 0.4
23/06:00pm 26.3 32.2 25.4 95 0.6 N 4 15 2 8 1006.6 1006.5 0.4
23/05:45pm 26.3 33.5 26.1 99 0.1 CALM 0 13 0 7 1006.7 - 0.4
23/05:30pm 26.0 31.3 25.8 99 0.1 NNE 9 19 5 10 1006.6 - 0.4
23/05:00pm 25.5 28.7 25.5 100 0.0 NNE 19 32 10 17 1006.6 - 0.4
23/04:30pm 27.5 29.0 23.7 80 2.6 NNE 22 32 12 17 1006.1 - 0.0
23/04:00pm 30.2 34.8 25.3 75 3.5 ENE 11 20 6 11 1005.6 - 0.0
23/03:30pm 30.3 34.2 24.9 73 3.8 ENE 13 20 7 11 1005.3 - 0.0
23/03:00pm 30.3 33.7 24.0 69 4.4 NNE 13 20 7 11 1005.7 1005.6 0.0
23/02:30pm 30.0 34.3 24.9 74 3.6 ENE 11 20 6 11 1006.3 - 0.0
23/02:00pm 31.1 36.0 25.2 71 4.2 NE 9 17 5 9 1006.4 - 0.0
23/01:30pm 31.3 36.2 25.9 73 3.8 NNE 11 20 6 11 1006.9 - 0.0
23/01:00pm 30.3 34.1 24.7 72 3.9 NE 13 20 7 11 1007.4 - 0.0
23/12:30pm 30.5 34.4 24.9 72 3.9 NNE 13 20 7 11 1007.7 - 0.0
23/12:00pm 30.5 34.6 24.6 70 4.1 NE 11 19 6 10 1008.0 1007.9 0.0
23/11:30am 30.4 35.7 25.0 73 3.8 NE 6 17 3 9 1008.5 - 0.0
23/11:00am 29.7 36.5 26.1 81 2.6 N 2 11 1 6 1008.8 - 0.0
23/10:30am 29.9 36.8 26.3 81 2.6 ENE 2 15 1 8 1009.3 - 0.0
23/10:00am 28.7 34.7 26.1 86 1.8 ESE 6 15 3 8 1009.5 - 0.0
23/09:59am 28.5 34.3 25.7 85 2.0 SE 6 15 3 8 1009.6 - 0.0
23/09:30am 27.3 33.1 26.6 96 0.5 S 9 19 5 10 1009.7 - 0.0
23/09:02am 25.9 30.5 25.9 100 0.0 SSE 13 19 7 10 1009.9 - 0.0
23/09:00am 25.9 30.8 25.9 100 0.0 SSE 11 19 6 10 1009.9 1009.8 30.6
23/08:30am 25.6 31.1 25.6 100 0.0 SSE 7 15 4 8 1009.6 - 30.6
23/08:00am 25.0 30.3 25.0 100 0.0 SSE 6 15 3 8 1009.0 - 30.6
23/07:30am 24.4 29.7 24.4 100 0.0 S 4 13 2 7 1008.8 - 30.6
23/07:00am 23.9 29.7 23.9 100 0.0 CALM 0 0 0 0 1008.5 - 30.6
23/06:30am 24.0 29.8 24.0 100 0.0 CALM 0 0 0 0 1008.3 - 30.6
23/06:00am 24.1 30.0 24.1 100 0.0 CALM 0 0 0 0 1008.0 1007.9 30.6
23/05:30am 24.1 30.0 24.1 100 0.0 CALM 0 0 0 0 1007.6 - 30.6
23/05:00am 24.2 30.2 24.2 100 0.0 CALM 0 0 0 0 1007.4 - 30.6
23/04:30am 24.3 30.3 24.3 100 0.0 CALM 0 0 0 0 1007.6 - 30.6
23/04:00am 24.4 30.5 24.4 100 0.0 CALM 0 0 0 0 1007.8 - 30.6
23/03:30am 24.5 30.6 24.5 100 0.0 CALM 0 0 0 0 1008.0 - 30.6
23/03:00am 24.5 30.6 24.5 100 0.0 CALM 0 11 0 6 1007.9 1007.8 30.6
23/02:30am 24.5 28.6 24.5 100 0.0 SSE 11 17 6 9 1007.5 - 30.6
23/02:00am 24.3 28.2 24.3 100 0.0 SSE 11 17 6 9 1007.9 - 30.6
23/01:30am 24.3 30.3 24.3 100 0.0 CALM 0 0 0 0 1008.5 - 30.6
23/01:00am 24.5 30.6 24.5 100 0.0 CALM 0 0 0 0 1008.4 - 30.4
23/12:30am 24.6 30.4 24.6 100 0.0 SE 2 13 1 7 1008.9 - 30.4
23/12:00am 24.6 28.7 24.6 100 0.0 SE 11 19 6 10 1009.5 1009.4 30.4
 
Date/Time
CST
Temp
°C
App
Temp
°C
Dew
Point
Rel
Hum
%
Delta-T
°C
Wind Press
QNH
hPa
Press
MSL
hPa
Rain
since 9 am
mm
Dir
 
Spd
km/h
Gust
km/h
Spd
kts
Gust
kts
22/11:30pm 24.6 28.3 24.6 100 0.0 S 13 20 7 11 1009.8 - 30.4
22/11:00pm 24.7 28.9 24.7 100 0.0 S 11 20 6 11 1010.0 - 30.4
22/10:30pm 24.7 29.3 24.7 100 0.0 SSE 9 15 5 8 1010.2 - 30.4
22/10:00pm 24.8 27.5 24.8 100 0.0 SSE 19 26 10 14 1010.0 - 30.2
22/09:30pm 24.8 30.0 24.8 100 0.0 SSE 6 17 3 9 1010.2 - 29.2
22/09:25pm 24.9 30.9 24.9 100 0.0 SSE 2 11 1 6 1010.1 - 28.6
22/09:12pm 24.9 30.5 24.9 100 0.0 SSE 4 15 2 8 1010.0 - 28.0
22/09:09pm 24.9 30.5 24.9 100 0.0 SSE 4 13 2 7 1010.0 - 27.8
22/09:00pm 24.9 30.9 24.9 100 0.0 SSE 2 15 1 8 1010.0 1009.9 27.8
22/08:53pm 24.9 30.0 24.9 100 0.0 SE 7 17 4 9 1010.0 - 27.6
22/08:30pm 24.8 31.1 24.8 100 0.0 CALM 0 11 0 6 1009.8 - 27.4
22/08:00pm 24.7 31.0 24.7 100 0.0 CALM 0 13 0 7 1009.4 - 26.6
22/07:55pm 24.8 30.8 24.8 100 0.0 SE 2 13 1 7 1009.3 - 26.4
22/07:30pm 24.7 28.5 24.7 100 0.0 E 13 20 7 11 1009.1 - 23.8
22/07:00pm 24.8 29.0 24.8 100 0.0 E 11 17 6 9 1008.7 - 18.0
22/06:53pm 24.7 29.6 24.7 100 0.0 E 7 17 4 9 1008.5 - 15.4
22/06:30pm 24.9 31.3 24.9 100 0.0 CALM 0 0 0 0 1008.4 - 13.2
22/06:00pm 24.5 30.3 24.5 100 0.0 S 2 13 1 7 1008.1 1008.0 13.0
22/05:30pm 24.9 28.4 24.9 100 0.0 S 15 20 8 11 1007.5 - 13.0
22/05:06pm 25.3 26.4 24.3 94 0.7 SSE 26 41 14 22 1007.5 - 8.4
22/05:00pm 27.5 33.8 26.8 96 0.5 NNE 7 15 4 8 1007.2 - 3.8
22/04:30pm 27.5 33.9 26.6 95 0.6 E 6 7 3 4 1006.4 - 3.8
22/04:00pm 27.1 31.5 25.7 92 1.0 E 13 19 7 10 1006.5 - 3.8
22/03:30pm 27.3 30.5 24.9 87 1.7 S 17 26 9 14 1006.3 - 3.8
22/03:28pm 27.1 29.8 24.7 87 1.7 S 19 26 10 14 1006.2 - 3.8
22/03:09pm 26.7 27.1 24.5 88 1.5 SE 30 48 16 26 1006.5 - 3.2
22/03:07pm 27.1 26.5 24.4 85 1.9 SE 35 48 19 26 1006.5 - 2.0
22/03:04pm 28.7 27.5 24.0 76 3.3 SE 37 48 20 26 1006.3 - 0.4
22/03:00pm 31.5 35.3 24.1 65 5.2 SSE 11 20 6 11 1006.0 1005.9 0.0
22/02:30pm 30.0 34.4 25.1 75 3.4 ENE 11 13 6 7 1006.3 - 0.0
22/02:00pm 31.1 34.5 24.0 66 4.9 SSE 13 17 7 9 1006.6 - 0.0
22/01:30pm 31.6 33.6 23.9 63 5.4 SSE 20 30 11 16 1006.7 - 0.0
22/01:00pm 32.1 34.5 24.2 63 5.5 SSE 19 30 10 16 1007.1 - 0.0
22/12:30pm 30.9 33.0 23.8 66 4.9 S 19 28 10 15 1007.7 - 0.0
22/12:00pm 31.5 34.1 24.9 68 4.7 SSE 20 30 11 16 1008.7 1008.6 0.0
22/11:30am 31.2 35.2 25.1 70 4.3 SE 13 24 7 13 1009.2 - 0.0
22/11:00am 29.8 33.4 24.4 73 3.8 SSE 13 20 7 11 1010.1 - 0.0
22/10:30am 29.0 32.4 24.1 75 3.4 SE 13 19 7 10 1010.4 - 0.0
22/10:00am 28.6 32.1 24.8 80 2.7 SSE 15 22 8 12 1010.6 - 0.0
22/09:30am 26.9 30.0 24.2 85 1.9 SSE 15 22 8 12 1010.6 - 0.0
22/09:00am 26.0 28.4 23.7 87 1.6 SSE 17 24 9 13 1010.4 1010.3 6.6
22/08:30am 25.7 28.8 23.6 88 1.4 SSE 13 20 7 11 1010.6 - 6.6
22/08:00am 25.4 28.1 23.5 89 1.3 SSE 15 20 8 11 1010.4 - 6.6
22/07:30am 24.9 27.8 23.1 90 1.2 SSE 13 19 7 10 1009.9 - 6.6
22/07:00am 24.6 27.4 23.0 91 1.1 SSE 13 20 7 11 1009.6 - 6.6
22/06:30am 24.6 26.5 22.7 89 1.3 SSE 17 24 9 13 1009.2 - 6.6
22/06:00am 24.6 26.7 22.5 88 1.4 SSE 15 20 8 11 1009.1 1009.0 6.6
22/05:30am 24.6 26.7 22.5 88 1.4 SSE 15 22 8 12 1008.8 - 6.6
22/05:00am 24.8 26.9 22.5 87 1.5 S 15 20 8 11 1008.6 - 6.6
22/04:30am 25.0 27.4 22.3 85 1.8 SSE 13 19 7 10 1008.5 - 6.6
22/04:00am 24.7 26.9 22.6 88 1.4 SSE 15 19 8 10 1008.8 - 6.6
22/03:30am 24.6 26.6 22.3 87 1.5 SSE 15 19 8 10 1008.9 - 6.6
22/03:00am 24.6 27.1 22.5 88 1.4 SSE 13 15 7 8 1009.1 1009.0 6.6
22/02:30am 24.9 27.6 22.2 85 1.8 SSE 11 15 6 8 1008.8 - 6.6
22/02:00am 25.1 27.5 22.2 84 1.9 SSE 13 19 7 10 1008.7 - 6.6
22/01:30am 25.5 28.0 22.4 83 2.1 SSE 13 17 7 9 1009.2 - 6.6
22/01:00am 25.3 28.1 23.0 87 1.6 SSE 13 17 7 9 1009.6 - 6.6
22/12:30am 25.2 27.9 22.9 87 1.6 SSE 13 15 7 8 1010.0 - 6.6
22/12:00am 25.8 28.8 23.3 86 1.7 SE 13 17 7 9 1010.3 1010.2 6.6

Other Formats:

Comma delimited format used in spreadsheet applications
http://www.bom.gov.au/fwo/IDD60801/IDD60801.95142.axf

JavaScript Object Notation format (JSON) in row-major order
http://www.bom.gov.au/fwo/IDD60801/IDD60801.95142.json